sensor_id;sensor_type;location;lat;lon;timestamp;P1;durP1;ratioP1;P2;durP2;ratioP2
37787;SDS011;23627;53.302;-6.362;2023-09-19T00:01:32;12.02;;;2.10;;
37787;SDS011;23627;53.302;-6.362;2023-09-19T00:03:59;9.68;;;2.00;;
37787;SDS011;23627;53.302;-6.362;2023-09-19T00:06:27;8.63;;;1.95;;
37787;SDS011;23627;53.302;-6.362;2023-09-19T00:08:56;10.25;;;2.08;;
37787;SDS011;23627;53.302;-6.362;2023-09-19T00:11:24;8.05;;;2.10;;
37787;SDS011;23627;53.302;-6.362;2023-09-19T00:13:51;10.13;;;1.75;;
37787;SDS011;23627;53.302;-6.362;2023-09-19T00:16:17;9.43;;;1.90;;
37787;SDS011;23627;53.302;-6.362;2023-09-19T00:18:44;8.18;;;1.65;;
37787;SDS011;23627;53.302;-6.362;2023-09-19T00:21:10;9.75;;;1.92;;
37787;SDS011;23627;53.302;-6.362;2023-09-19T00:23:36;10.52;;;1.92;;
37787;SDS011;23627;53.302;-6.362;2023-09-19T00:26:02;8.20;;;1.73;;
37787;SDS011;23627;53.302;-6.362;2023-09-19T00:28:28;8.57;;;1.70;;
37787;SDS011;23627;53.302;-6.362;2023-09-19T00:30:55;7.40;;;1.70;;
37787;SDS011;23627;53.302;-6.362;2023-09-19T00:33:21;10.45;;;1.63;;
37787;SDS011;23627;53.302;-6.362;2023-09-19T00:35:47;11.60;;;1.75;;
37787;SDS011;23627;53.302;-6.362;2023-09-19T00:38:17;8.88;;;1.80;;
37787;SDS011;23627;53.302;-6.362;2023-09-19T00:40:46;10.68;;;1.80;;
37787;SDS011;23627;53.302;-6.362;2023-09-19T00:43:13;9.25;;;1.73;;
37787;SDS011;23627;53.302;-6.362;2023-09-19T00:45:42;9.77;;;1.63;;
37787;SDS011;23627;53.302;-6.362;2023-09-19T00:48:09;6.90;;;1.58;;
37787;SDS011;23627;53.302;-6.362;2023-09-19T00:50:35;9.10;;;1.60;;
37787;SDS011;23627;53.302;-6.362;2023-09-19T00:53:02;8.95;;;1.52;;
37787;SDS011;23627;53.302;-6.362;2023-09-19T00:55:38;9.25;;;1.48;;
37787;SDS011;23627;53.302;-6.362;2023-09-19T00:58:05;8.35;;;1.60;;
37787;SDS011;23627;53.302;-6.362;2023-09-19T01:00:35;5.57;;;1.27;;
37787;SDS011;23627;53.302;-6.362;2023-09-19T01:03:01;10.55;;;1.70;;
37787;SDS011;23627;53.302;-6.362;2023-09-19T01:05:28;5.53;;;1.30;;
37787;SDS011;23627;53.302;-6.362;2023-09-19T01:07:55;5.07;;;1.00;;
37787;SDS011;23627;53.302;-6.362;2023-09-19T01:10:21;5.28;;;1.05;;
37787;SDS011;23627;53.302;-6.362;2023-09-19T01:21:08;3.95;;;0.80;;
37787;SDS011;23627;53.302;-6.362;2023-09-19T01:31:27;4.50;;;0.82;;
37787;SDS011;23627;53.302;-6.362;2023-09-19T01:34:00;4.10;;;0.70;;
37787;SDS011;23627;53.302;-6.362;2023-09-19T01:36:32;2.45;;;0.52;;
37787;SDS011;23627;53.302;-6.362;2023-09-19T01:39:02;4.70;;;0.80;;
37787;SDS011;23627;53.302;-6.362;2023-09-19T01:44:15;3.05;;;0.73;;
37787;SDS011;23627;53.302;-6.362;2023-09-19T01:47:01;5.93;;;1.20;;
37787;SDS011;23627;53.302;-6.362;2023-09-19T01:52:15;4.40;;;1.00;;
37787;SDS011;23627;53.302;-6.362;2023-09-19T01:54:51;4.10;;;0.80;;
37787;SDS011;23627;53.302;-6.362;2023-09-19T02:00:16;2.08;;;0.70;;
37787;SDS011;23627;53.302;-6.362;2023-09-19T02:02:46;4.63;;;1.10;;
37787;SDS011;23627;53.302;-6.362;2023-09-19T02:05:13;5.78;;;1.20;;
37787;SDS011;23627;53.302;-6.362;2023-09-19T02:07:46;4.10;;;0.85;;
37787;SDS011;23627;53.302;-6.362;2023-09-19T02:10:12;4.90;;;1.02;;
37787;SDS011;23627;53.302;-6.362;2023-09-19T02:12:39;4.85;;;1.20;;
37787;SDS011;23627;53.302;-6.362;2023-09-19T02:15:05;7.30;;;1.42;;
37787;SDS011;23627;53.302;-6.362;2023-09-19T02:17:32;4.07;;;1.15;;
37787;SDS011;23627;53.302;-6.362;2023-09-19T02:19:57;5.95;;;1.40;;
37787;SDS011;23627;53.302;-6.362;2023-09-19T02:22:25;4.93;;;1.20;;
37787;SDS011;23627;53.302;-6.362;2023-09-19T02:24:52;5.80;;;1.27;;
37787;SDS011;23627;53.302;-6.362;2023-09-19T02:27:18;8.05;;;1.38;;
37787;SDS011;23627;53.302;-6.362;2023-09-19T02:29:44;6.45;;;1.27;;
37787;SDS011;23627;53.302;-6.362;2023-09-19T02:32:10;6.65;;;1.60;;
37787;SDS011;23627;53.302;-6.362;2023-09-19T02:34:36;6.80;;;1.67;;
37787;SDS011;23627;53.302;-6.362;2023-09-19T02:37:03;6.07;;;1.40;;
37787;SDS011;23627;53.302;-6.362;2023-09-19T02:39:30;5.50;;;1.73;;
37787;SDS011;23627;53.302;-6.362;2023-09-19T02:41:56;5.93;;;1.63;;
37787;SDS011;23627;53.302;-6.362;2023-09-19T02:44:22;5.90;;;1.35;;
37787;SDS011;23627;53.302;-6.362;2023-09-19T02:46:48;7.07;;;1.65;;
37787;SDS011;23627;53.302;-6.362;2023-09-19T02:49:14;4.40;;;1.80;;
37787;SDS011;23627;53.302;-6.362;2023-09-19T02:51:40;5.63;;;1.50;;
37787;SDS011;23627;53.302;-6.362;2023-09-19T02:54:06;5.43;;;1.58;;
37787;SDS011;23627;53.302;-6.362;2023-09-19T02:56:32;7.28;;;1.60;;
37787;SDS011;23627;53.302;-6.362;2023-09-19T02:58:58;4.55;;;1.27;;
37787;SDS011;23627;53.302;-6.362;2023-09-19T03:01:26;5.22;;;1.63;;
37787;SDS011;23627;53.302;-6.362;2023-09-19T03:03:53;5.25;;;1.40;;
37787;SDS011;23627;53.302;-6.362;2023-09-19T03:06:19;5.00;;;1.33;;
37787;SDS011;23627;53.302;-6.362;2023-09-19T03:08:45;6.03;;;1.60;;
37787;SDS011;23627;53.302;-6.362;2023-09-19T03:11:11;3.88;;;1.20;;
37787;SDS011;23627;53.302;-6.362;2023-09-19T03:13:40;6.30;;;1.83;;
37787;SDS011;23627;53.302;-6.362;2023-09-19T03:16:07;5.22;;;1.10;;
37787;SDS011;23627;53.302;-6.362;2023-09-19T03:18:36;2.85;;;0.90;;
37787;SDS011;23627;53.302;-6.362;2023-09-19T03:21:02;3.03;;;0.98;;
37787;SDS011;23627;53.302;-6.362;2023-09-19T03:23:28;2.80;;;0.80;;
37787;SDS011;23627;53.302;-6.362;2023-09-19T03:25:54;1.58;;;0.65;;
37787;SDS011;23627;53.302;-6.362;2023-09-19T03:28:21;2.00;;;0.80;;
37787;SDS011;23627;53.302;-6.362;2023-09-19T03:30:58;2.80;;;0.82;;
37787;SDS011;23627;53.302;-6.362;2023-09-19T03:33:25;2.75;;;0.80;;
37787;SDS011;23627;53.302;-6.362;2023-09-19T03:35:54;3.50;;;1.05;;
37787;SDS011;23627;53.302;-6.362;2023-09-19T03:38:23;2.88;;;0.60;;
37787;SDS011;23627;53.302;-6.362;2023-09-19T03:40:49;3.45;;;1.00;;
37787;SDS011;23627;53.302;-6.362;2023-09-19T03:43:15;1.88;;;0.65;;
37787;SDS011;23627;53.302;-6.362;2023-09-19T03:45:40;1.35;;;0.60;;
37787;SDS011;23627;53.302;-6.362;2023-09-19T03:48:10;3.30;;;0.80;;
37787;SDS011;23627;53.302;-6.362;2023-09-19T03:50:36;3.20;;;0.95;;
37787;SDS011;23627;53.302;-6.362;2023-09-19T03:53:02;2.60;;;0.90;;
37787;SDS011;23627;53.302;-6.362;2023-09-19T03:55:29;3.25;;;0.90;;
37787;SDS011;23627;53.302;-6.362;2023-09-19T03:57:55;4.78;;;1.33;;
37787;SDS011;23627;53.302;-6.362;2023-09-19T04:00:21;3.30;;;1.23;;
37787;SDS011;23627;53.302;-6.362;2023-09-19T04:02:49;5.13;;;1.50;;
37787;SDS011;23627;53.302;-6.362;2023-09-19T04:05:17;3.53;;;1.10;;
37787;SDS011;23627;53.302;-6.362;2023-09-19T04:07:43;2.25;;;0.82;;
37787;SDS011;23627;53.302;-6.362;2023-09-19T04:10:09;3.25;;;1.00;;
37787;SDS011;23627;53.302;-6.362;2023-09-19T04:12:37;3.92;;;0.80;;
37787;SDS011;23627;53.302;-6.362;2023-09-19T04:15:06;3.67;;;0.85;;
37787;SDS011;23627;53.302;-6.362;2023-09-19T04:17:36;2.60;;;0.70;;
37787;SDS011;23627;53.302;-6.362;2023-09-19T04:20:01;3.50;;;0.70;;
37787;SDS011;23627;53.302;-6.362;2023-09-19T04:22:31;2.88;;;0.82;;
37787;SDS011;23627;53.302;-6.362;2023-09-19T04:24:57;2.08;;;0.70;;
37787;SDS011;23627;53.302;-6.362;2023-09-19T04:27:23;2.78;;;0.80;;
37787;SDS011;23627;53.302;-6.362;2023-09-19T04:29:48;3.17;;;1.00;;
37787;SDS011;23627;53.302;-6.362;2023-09-19T04:32:15;3.28;;;0.60;;
37787;SDS011;23627;53.302;-6.362;2023-09-19T04:34:42;2.17;;;0.70;;
37787;SDS011;23627;53.302;-6.362;2023-09-19T04:37:09;2.17;;;0.82;;
37787;SDS011;23627;53.302;-6.362;2023-09-19T04:39:36;3.63;;;0.88;;
37787;SDS011;23627;53.302;-6.362;2023-09-19T04:42:05;4.35;;;0.90;;
37787;SDS011;23627;53.302;-6.362;2023-09-19T04:44:31;3.97;;;1.00;;
37787;SDS011;23627;53.302;-6.362;2023-09-19T04:46:57;2.20;;;0.73;;
37787;SDS011;23627;53.302;-6.362;2023-09-19T04:49:22;2.60;;;0.80;;
37787;SDS011;23627;53.302;-6.362;2023-09-19T04:51:48;2.05;;;0.70;;
37787;SDS011;23627;53.302;-6.362;2023-09-19T04:54:14;1.58;;;0.60;;
37787;SDS011;23627;53.302;-6.362;2023-09-19T04:56:40;1.83;;;0.55;;
37787;SDS011;23627;53.302;-6.362;2023-09-19T04:59:05;1.08;;;0.50;;
37787;SDS011;23627;53.302;-6.362;2023-09-19T05:01:31;1.33;;;0.50;;
37787;SDS011;23627;53.302;-6.362;2023-09-19T05:03:57;1.63;;;0.63;;
37787;SDS011;23627;53.302;-6.362;2023-09-19T05:06:23;3.03;;;0.65;;
37787;SDS011;23627;53.302;-6.362;2023-09-19T05:08:49;0.68;;;0.32;;
37787;SDS011;23627;53.302;-6.362;2023-09-19T05:11:19;1.95;;;0.40;;
37787;SDS011;23627;53.302;-6.362;2023-09-19T05:13:46;1.48;;;0.50;;
37787;SDS011;23627;53.302;-6.362;2023-09-19T05:16:12;1.13;;;0.40;;
37787;SDS011;23627;53.302;-6.362;2023-09-19T05:18:38;1.08;;;0.32;;
37787;SDS011;23627;53.302;-6.362;2023-09-19T05:21:04;1.83;;;0.50;;
37787;SDS011;23627;53.302;-6.362;2023-09-19T05:23:30;1.00;;;0.80;;
37787;SDS011;23627;53.302;-6.362;2023-09-19T05:25:56;1.00;;;0.40;;
37787;SDS011;23627;53.302;-6.362;2023-09-19T05:28:23;2.00;;;0.38;;
37787;SDS011;23627;53.302;-6.362;2023-09-19T05:30:49;0.75;;;0.32;;
37787;SDS011;23627;53.302;-6.362;2023-09-19T05:33:15;0.68;;;0.30;;
37787;SDS011;23627;53.302;-6.362;2023-09-19T05:35:43;0.60;;;0.20;;
37787;SDS011;23627;53.302;-6.362;2023-09-19T05:38:08;0.60;;;0.20;;
37787;SDS011;23627;53.302;-6.362;2023-09-19T05:40:35;1.17;;;0.38;;
37787;SDS011;23627;53.302;-6.362;2023-09-19T05:43:01;0.73;;;0.20;;
37787;SDS011;23627;53.302;-6.362;2023-09-19T05:45:30;0.82;;;0.20;;
37787;SDS011;23627;53.302;-6.362;2023-09-19T05:48:09;1.30;;;0.20;;
37787;SDS011;23627;53.302;-6.362;2023-09-19T05:50:38;0.40;;;0.10;;
37787;SDS011;23627;53.302;-6.362;2023-09-19T05:53:04;0.70;;;0.30;;
37787;SDS011;23627;53.302;-6.362;2023-09-19T05:55:32;1.13;;;0.20;;
37787;SDS011;23627;53.302;-6.362;2023-09-19T05:57:58;0.70;;;0.17;;
37787;SDS011;23627;53.302;-6.362;2023-09-19T06:00:27;0.65;;;0.20;;
37787;SDS011;23627;53.302;-6.362;2023-09-19T06:02:55;0.60;;;0.10;;
37787;SDS011;23627;53.302;-6.362;2023-09-19T06:05:27;0.80;;;0.20;;
37787;SDS011;23627;53.302;-6.362;2023-09-19T06:07:56;0.32;;;0.10;;
37787;SDS011;23627;53.302;-6.362;2023-09-19T06:10:24;0.22;;;0.10;;
37787;SDS011;23627;53.302;-6.362;2023-09-19T06:12:53;0.52;;;0.10;;
37787;SDS011;23627;53.302;-6.362;2023-09-19T06:15:20;0.20;;;0.10;;
37787;SDS011;23627;53.302;-6.362;2023-09-19T06:17:50;0.43;;;0.10;;
37787;SDS011;23627;53.302;-6.362;2023-09-19T06:20:21;0.22;;;0.10;;
37787;SDS011;23627;53.302;-6.362;2023-09-19T06:22:48;0.45;;;0.10;;
37787;SDS011;23627;53.302;-6.362;2023-09-19T06:25:15;0.32;;;0.00;;
37787;SDS011;23627;53.302;-6.362;2023-09-19T06:27:44;0.00;;;0.00;;
37787;SDS011;23627;53.302;-6.362;2023-09-19T06:30:11;0.50;;;0.00;;
37787;SDS011;23627;53.302;-6.362;2023-09-19T06:32:38;0.10;;;0.10;;
37787;SDS011;23627;53.302;-6.362;2023-09-19T06:35:05;0.20;;;0.10;;
37787;SDS011;23627;53.302;-6.362;2023-09-19T06:37:36;0.10;;;0.00;;
37787;SDS011;23627;53.302;-6.362;2023-09-19T06:40:12;0.90;;;0.05;;
37787;SDS011;23627;53.302;-6.362;2023-09-19T06:42:40;0.15;;;0.00;;
37787;SDS011;23627;53.302;-6.362;2023-09-19T06:45:13;0.10;;;0.00;;
37787;SDS011;23627;53.302;-6.362;2023-09-19T06:47:43;0.20;;;0.00;;
37787;SDS011;23627;53.302;-6.362;2023-09-19T06:50:15;0.30;;;0.00;;
37787;SDS011;23627;53.302;-6.362;2023-09-19T06:52:47;0.00;;;0.00;;
37787;SDS011;23627;53.302;-6.362;2023-09-19T06:55:20;0.70;;;0.00;;
37787;SDS011;23627;53.302;-6.362;2023-09-19T06:57:48;0.10;;;0.00;;
37787;SDS011;23627;53.302;-6.362;2023-09-19T07:00:15;1.42;;;0.10;;
37787;SDS011;23627;53.302;-6.362;2023-09-19T07:02:43;0.10;;;0.00;;
37787;SDS011;23627;53.302;-6.362;2023-09-19T07:05:21;0.52;;;0.10;;
37787;SDS011;23627;53.302;-6.362;2023-09-19T07:07:47;0.10;;;0.00;;
37787;SDS011;23627;53.302;-6.362;2023-09-19T07:10:13;0.10;;;0.00;;
37787;SDS011;23627;53.302;-6.362;2023-09-19T07:12:39;0.10;;;0.00;;
37787;SDS011;23627;53.302;-6.362;2023-09-19T07:15:06;0.77;;;0.00;;
37787;SDS011;23627;53.302;-6.362;2023-09-19T07:17:32;0.10;;;0.00;;
37787;SDS011;23627;53.302;-6.362;2023-09-19T07:19:58;0.20;;;0.00;;
37787;SDS011;23627;53.302;-6.362;2023-09-19T07:22:25;0.22;;;0.00;;
37787;SDS011;23627;53.302;-6.362;2023-09-19T07:24:52;0.30;;;0.00;;
37787;SDS011;23627;53.302;-6.362;2023-09-19T07:30:39;0.00;;;0.00;;
37787;SDS011;23627;53.302;-6.362;2023-09-19T07:33:06;0.35;;;0.10;;
37787;SDS011;23627;53.302;-6.362;2023-09-19T07:35:36;0.10;;;0.00;;
37787;SDS011;23627;53.302;-6.362;2023-09-19T07:38:04;0.30;;;0.20;;
37787;SDS011;23627;53.302;-6.362;2023-09-19T07:40:30;0.15;;;0.00;;
37787;SDS011;23627;53.302;-6.362;2023-09-19T07:42:56;0.05;;;0.00;;
37787;SDS011;23627;53.302;-6.362;2023-09-19T07:45:26;0.15;;;0.00;;
37787;SDS011;23627;53.302;-6.362;2023-09-19T07:47:56;0.28;;;0.10;;
37787;SDS011;23627;53.302;-6.362;2023-09-19T07:50:22;0.40;;;0.10;;
37787;SDS011;23627;53.302;-6.362;2023-09-19T07:52:48;0.22;;;0.05;;
37787;SDS011;23627;53.302;-6.362;2023-09-19T07:55:17;0.25;;;0.00;;
37787;SDS011;23627;53.302;-6.362;2023-09-19T07:57:45;0.40;;;0.10;;
37787;SDS011;23627;53.302;-6.362;2023-09-19T08:00:14;0.75;;;0.15;;
37787;SDS011;23627;53.302;-6.362;2023-09-19T08:02:40;0.13;;;0.00;;
37787;SDS011;23627;53.302;-6.362;2023-09-19T08:05:07;0.20;;;0.10;;
37787;SDS011;23627;53.302;-6.362;2023-09-19T08:07:40;0.80;;;0.10;;
37787;SDS011;23627;53.302;-6.362;2023-09-19T08:10:07;0.08;;;0.00;;
37787;SDS011;23627;53.302;-6.362;2023-09-19T08:12:36;0.22;;;0.03;;
37787;SDS011;23627;53.302;-6.362;2023-09-19T08:15:03;0.30;;;0.10;;
37787;SDS011;23627;53.302;-6.362;2023-09-19T08:17:34;0.47;;;0.10;;
37787;SDS011;23627;53.302;-6.362;2023-09-19T08:20:00;0.57;;;0.10;;
37787;SDS011;23627;53.302;-6.362;2023-09-19T08:22:26;0.22;;;0.00;;
37787;SDS011;23627;53.302;-6.362;2023-09-19T08:24:52;0.22;;;0.08;;
37787;SDS011;23627;53.302;-6.362;2023-09-19T08:27:17;0.10;;;0.00;;
37787;SDS011;23627;53.302;-6.362;2023-09-19T08:29:44;0.47;;;0.10;;
37787;SDS011;23627;53.302;-6.362;2023-09-19T08:32:11;0.20;;;0.00;;
37787;SDS011;23627;53.302;-6.362;2023-09-19T08:34:37;0.28;;;0.00;;
37787;SDS011;23627;53.302;-6.362;2023-09-19T08:37:03;0.45;;;0.10;;
37787;SDS011;23627;53.302;-6.362;2023-09-19T08:39:29;0.30;;;0.10;;
37787;SDS011;23627;53.302;-6.362;2023-09-19T08:41:58;0.40;;;0.00;;
37787;SDS011;23627;53.302;-6.362;2023-09-19T08:44:25;0.25;;;0.10;;
37787;SDS011;23627;53.302;-6.362;2023-09-19T08:47:00;0.20;;;0.00;;
37787;SDS011;23627;53.302;-6.362;2023-09-19T08:52:16;0.90;;;0.10;;
37787;SDS011;23627;53.302;-6.362;2023-09-19T08:54:48;0.28;;;0.13;;
37787;SDS011;23627;53.302;-6.362;2023-09-19T08:57:18;0.20;;;0.10;;
37787;SDS011;23627;53.302;-6.362;2023-09-19T08:59:49;0.45;;;0.10;;
37787;SDS011;23627;53.302;-6.362;2023-09-19T09:02:16;0.40;;;0.00;;
37787;SDS011;23627;53.302;-6.362;2023-09-19T09:04:45;0.55;;;0.10;;
37787;SDS011;23627;53.302;-6.362;2023-09-19T09:07:14;0.30;;;0.00;;
37787;SDS011;23627;53.302;-6.362;2023-09-19T09:09:41;0.63;;;0.10;;
37787;SDS011;23627;53.302;-6.362;2023-09-19T09:12:12;0.40;;;0.10;;
37787;SDS011;23627;53.302;-6.362;2023-09-19T09:14:45;0.17;;;0.00;;
37787;SDS011;23627;53.302;-6.362;2023-09-19T09:17:15;0.22;;;0.08;;
37787;SDS011;23627;53.302;-6.362;2023-09-19T09:19:48;0.20;;;0.10;;
37787;SDS011;23627;53.302;-6.362;2023-09-19T09:22:14;0.45;;;0.10;;
37787;SDS011;23627;53.302;-6.362;2023-09-19T09:24:54;0.10;;;0.00;;
37787;SDS011;23627;53.302;-6.362;2023-09-19T09:27:23;0.10;;;0.00;;
37787;SDS011;23627;53.302;-6.362;2023-09-19T09:29:50;0.13;;;0.00;;
37787;SDS011;23627;53.302;-6.362;2023-09-19T09:32:24;0.30;;;0.00;;
37787;SDS011;23627;53.302;-6.362;2023-09-19T09:34:58;0.00;;;0.00;;
37787;SDS011;23627;53.302;-6.362;2023-09-19T09:37:26;0.00;;;0.00;;
37787;SDS011;23627;53.302;-6.362;2023-09-19T09:39:58;0.00;;;0.00;;
37787;SDS011;23627;53.302;-6.362;2023-09-19T09:43:01;0.17;;;0.00;;
37787;SDS011;23627;53.302;-6.362;2023-09-19T09:45:26;0.30;;;0.00;;
37787;SDS011;23627;53.302;-6.362;2023-09-19T09:48:05;0.08;;;0.00;;
37787;SDS011;23627;53.302;-6.362;2023-09-19T09:50:56;0.28;;;0.20;;
37787;SDS011;23627;53.302;-6.362;2023-09-19T09:53:32;0.10;;;0.00;;
37787;SDS011;23627;53.302;-6.362;2023-09-19T09:56:05;0.13;;;0.10;;
37787;SDS011;23627;53.302;-6.362;2023-09-19T09:58:33;0.10;;;0.00;;
37787;SDS011;23627;53.302;-6.362;2023-09-19T10:01:00;0.08;;;0.00;;
37787;SDS011;23627;53.302;-6.362;2023-09-19T10:03:36;0.10;;;0.00;;
37787;SDS011;23627;53.302;-6.362;2023-09-19T10:06:12;0.40;;;0.00;;
37787;SDS011;23627;53.302;-6.362;2023-09-19T10:11:45;0.13;;;0.00;;
37787;SDS011;23627;53.302;-6.362;2023-09-19T10:14:16;0.40;;;0.10;;
37787;SDS011;23627;53.302;-6.362;2023-09-19T10:16:48;0.80;;;0.00;;
37787;SDS011;23627;53.302;-6.362;2023-09-19T10:19:23;0.10;;;0.00;;
37787;SDS011;23627;53.302;-6.362;2023-09-19T10:21:55;0.10;;;0.00;;
37787;SDS011;23627;53.302;-6.362;2023-09-19T10:24:23;0.68;;;0.03;;
37787;SDS011;23627;53.302;-6.362;2023-09-19T10:26:51;0.10;;;0.05;;
37787;SDS011;23627;53.302;-6.362;2023-09-19T10:29:19;0.03;;;0.00;;
37787;SDS011;23627;53.302;-6.362;2023-09-19T10:31:49;0.00;;;0.00;;
37787;SDS011;23627;53.302;-6.362;2023-09-19T10:34:18;0.10;;;0.10;;
37787;SDS011;23627;53.302;-6.362;2023-09-19T10:36:45;0.10;;;0.08;;
37787;SDS011;23627;53.302;-6.362;2023-09-19T10:39:13;0.13;;;0.10;;
37787;SDS011;23627;53.302;-6.362;2023-09-19T10:41:44;0.10;;;0.05;;
37787;SDS011;23627;53.302;-6.362;2023-09-19T10:44:23;0.38;;;0.10;;
37787;SDS011;23627;53.302;-6.362;2023-09-19T10:46:50;0.10;;;0.00;;
37787;SDS011;23627;53.302;-6.362;2023-09-19T10:49:20;0.20;;;0.03;;
37787;SDS011;23627;53.302;-6.362;2023-09-19T10:51:47;0.10;;;0.00;;
37787;SDS011;23627;53.302;-6.362;2023-09-19T10:54:18;0.32;;;0.10;;
37787;SDS011;23627;53.302;-6.362;2023-09-19T10:56:48;0.28;;;0.08;;
37787;SDS011;23627;53.302;-6.362;2023-09-19T10:59:20;0.10;;;0.00;;
37787;SDS011;23627;53.302;-6.362;2023-09-19T11:01:47;0.20;;;0.10;;
37787;SDS011;23627;53.302;-6.362;2023-09-19T11:07:07;0.40;;;0.10;;
37787;SDS011;23627;53.302;-6.362;2023-09-19T11:09:50;0.40;;;0.00;;
37787;SDS011;23627;53.302;-6.362;2023-09-19T11:15:00;0.10;;;0.00;;
37787;SDS011;23627;53.302;-6.362;2023-09-19T11:17:42;0.20;;;0.10;;
37787;SDS011;23627;53.302;-6.362;2023-09-19T11:30:31;0.10;;;0.00;;
37787;SDS011;23627;53.302;-6.362;2023-09-19T11:43:49;0.17;;;0.00;;
37787;SDS011;23627;53.302;-6.362;2023-09-19T11:46:20;0.45;;;0.10;;
37787;SDS011;23627;53.302;-6.362;2023-09-19T11:48:49;0.73;;;0.10;;
37787;SDS011;23627;53.302;-6.362;2023-09-19T11:51:19;0.52;;;0.10;;
37787;SDS011;23627;53.302;-6.362;2023-09-19T11:53:53;0.10;;;0.00;;
37787;SDS011;23627;53.302;-6.362;2023-09-19T11:56:21;0.90;;;0.10;;
37787;SDS011;23627;53.302;-6.362;2023-09-19T11:58:53;0.20;;;0.00;;
37787;SDS011;23627;53.302;-6.362;2023-09-19T12:01:30;1.27;;;0.10;;
37787;SDS011;23627;53.302;-6.362;2023-09-19T12:04:04;0.77;;;0.20;;
37787;SDS011;23627;53.302;-6.362;2023-09-19T12:06:30;1.15;;;0.20;;
37787;SDS011;23627;53.302;-6.362;2023-09-19T12:08:57;0.40;;;0.10;;
37787;SDS011;23627;53.302;-6.362;2023-09-19T12:11:30;0.13;;;0.10;;
37787;SDS011;23627;53.302;-6.362;2023-09-19T12:14:00;1.17;;;0.10;;
37787;SDS011;23627;53.302;-6.362;2023-09-19T12:16:27;0.20;;;0.10;;
37787;SDS011;23627;53.302;-6.362;2023-09-19T12:18:56;0.50;;;0.10;;
37787;SDS011;23627;53.302;-6.362;2023-09-19T12:24:11;1.63;;;0.20;;
37787;SDS011;23627;53.302;-6.362;2023-09-19T12:26:45;1.38;;;0.20;;
37787;SDS011;23627;53.302;-6.362;2023-09-19T12:29:17;0.50;;;0.10;;
37787;SDS011;23627;53.302;-6.362;2023-09-19T12:31:49;0.70;;;0.10;;
37787;SDS011;23627;53.302;-6.362;2023-09-19T12:34:20;0.70;;;0.17;;
37787;SDS011;23627;53.302;-6.362;2023-09-19T12:36:47;0.93;;;0.20;;
37787;SDS011;23627;53.302;-6.362;2023-09-19T12:39:23;0.10;;;0.10;;
37787;SDS011;23627;53.302;-6.362;2023-09-19T12:41:51;0.40;;;0.20;;
37787;SDS011;23627;53.302;-6.362;2023-09-19T12:44:18;0.68;;;0.20;;
37787;SDS011;23627;53.302;-6.362;2023-09-19T12:46:44;0.85;;;0.10;;
37787;SDS011;23627;53.302;-6.362;2023-09-19T12:49:17;1.48;;;0.30;;
37787;SDS011;23627;53.302;-6.362;2023-09-19T12:51:44;0.55;;;0.20;;
37787;SDS011;23627;53.302;-6.362;2023-09-19T12:54:14;0.52;;;0.10;;
37787;SDS011;23627;53.302;-6.362;2023-09-19T12:56:44;0.65;;;0.20;;
37787;SDS011;23627;53.302;-6.362;2023-09-19T12:59:13;1.17;;;0.30;;
37787;SDS011;23627;53.302;-6.362;2023-09-19T13:01:42;0.28;;;0.10;;
37787;SDS011;23627;53.302;-6.362;2023-09-19T13:04:15;0.55;;;0.20;;
37787;SDS011;23627;53.302;-6.362;2023-09-19T13:06:45;0.57;;;0.20;;
37787;SDS011;23627;53.302;-6.362;2023-09-19T13:09:13;2.15;;;0.43;;
37787;SDS011;23627;53.302;-6.362;2023-09-19T13:11:41;2.28;;;0.20;;
37787;SDS011;23627;53.302;-6.362;2023-09-19T13:14:13;0.90;;;0.25;;
37787;SDS011;23627;53.302;-6.362;2023-09-19T13:19:47;1.95;;;0.20;;
37787;SDS011;23627;53.302;-6.362;2023-09-19T13:25:14;0.85;;;0.20;;
37787;SDS011;23627;53.302;-6.362;2023-09-19T13:27:47;1.20;;;0.20;;
37787;SDS011;23627;53.302;-6.362;2023-09-19T13:30:19;1.08;;;0.17;;
37787;SDS011;23627;53.302;-6.362;2023-09-19T13:32:45;0.38;;;0.10;;
37787;SDS011;23627;53.302;-6.362;2023-09-19T13:35:15;0.52;;;0.15;;
37787;SDS011;23627;53.302;-6.362;2023-09-19T13:37:41;0.75;;;0.25;;
37787;SDS011;23627;53.302;-6.362;2023-09-19T13:40:11;1.67;;;0.40;;
37787;SDS011;23627;53.302;-6.362;2023-09-19T13:42:37;0.80;;;0.32;;
37787;SDS011;23627;53.302;-6.362;2023-09-19T13:45:04;1.08;;;0.35;;
37787;SDS011;23627;53.302;-6.362;2023-09-19T13:47:31;1.15;;;0.40;;
37787;SDS011;23627;53.302;-6.362;2023-09-19T13:49:58;0.90;;;0.30;;
37787;SDS011;23627;53.302;-6.362;2023-09-19T13:52:24;1.42;;;0.40;;
37787;SDS011;23627;53.302;-6.362;2023-09-19T13:54:53;1.75;;;0.40;;
37787;SDS011;23627;53.302;-6.362;2023-09-19T13:57:19;1.85;;;0.40;;
37787;SDS011;23627;53.302;-6.362;2023-09-19T13:59:44;1.48;;;0.40;;
37787;SDS011;23627;53.302;-6.362;2023-09-19T14:02:10;1.42;;;0.38;;
37787;SDS011;23627;53.302;-6.362;2023-09-19T14:04:36;2.03;;;0.30;;
37787;SDS011;23627;53.302;-6.362;2023-09-19T14:07:02;1.17;;;0.47;;
37787;SDS011;23627;53.302;-6.362;2023-09-19T14:09:28;1.25;;;0.30;;
37787;SDS011;23627;53.302;-6.362;2023-09-19T14:11:54;1.38;;;0.50;;
37787;SDS011;23627;53.302;-6.362;2023-09-19T14:14:20;0.88;;;0.40;;
37787;SDS011;23627;53.302;-6.362;2023-09-19T14:16:47;1.05;;;0.38;;
37787;SDS011;23627;53.302;-6.362;2023-09-19T14:19:13;1.48;;;0.50;;
37787;SDS011;23627;53.302;-6.362;2023-09-19T14:21:41;1.90;;;0.60;;
37787;SDS011;23627;53.302;-6.362;2023-09-19T14:24:07;2.13;;;0.68;;
37787;SDS011;23627;53.302;-6.362;2023-09-19T14:26:38;3.42;;;0.93;;
37787;SDS011;23627;53.302;-6.362;2023-09-19T14:29:04;3.53;;;1.08;;
37787;SDS011;23627;53.302;-6.362;2023-09-19T14:31:33;4.20;;;0.95;;
37787;SDS011;23627;53.302;-6.362;2023-09-19T14:33:59;4.45;;;1.20;;
37787;SDS011;23627;53.302;-6.362;2023-09-19T14:36:25;5.60;;;1.55;;
37787;SDS011;23627;53.302;-6.362;2023-09-19T14:38:55;4.95;;;1.20;;
37787;SDS011;23627;53.302;-6.362;2023-09-19T14:41:21;6.20;;;1.50;;
37787;SDS011;23627;53.302;-6.362;2023-09-19T14:43:48;5.93;;;1.50;;
37787;SDS011;23627;53.302;-6.362;2023-09-19T14:46:14;4.97;;;1.33;;
37787;SDS011;23627;53.302;-6.362;2023-09-19T14:48:41;6.85;;;1.67;;
37787;SDS011;23627;53.302;-6.362;2023-09-19T14:51:08;7.75;;;1.70;;
37787;SDS011;23627;53.302;-6.362;2023-09-19T14:53:34;7.57;;;1.70;;
37787;SDS011;23627;53.302;-6.362;2023-09-19T14:56:02;10.15;;;2.00;;
37787;SDS011;23627;53.302;-6.362;2023-09-19T14:58:29;7.13;;;1.98;;
37787;SDS011;23627;53.302;-6.362;2023-09-19T15:01:05;6.95;;;2.10;;
37787;SDS011;23627;53.302;-6.362;2023-09-19T15:03:33;7.15;;;1.80;;
37787;SDS011;23627;53.302;-6.362;2023-09-19T15:06:04;6.75;;;2.00;;
37787;SDS011;23627;53.302;-6.362;2023-09-19T15:11:02;8.35;;;1.73;;
37787;SDS011;23627;53.302;-6.362;2023-09-19T15:13:31;6.55;;;1.80;;
37787;SDS011;23627;53.302;-6.362;2023-09-19T15:16:00;6.82;;;1.70;;
37787;SDS011;23627;53.302;-6.362;2023-09-19T15:18:36;7.93;;;1.83;;
37787;SDS011;23627;53.302;-6.362;2023-09-19T15:21:09;8.07;;;2.20;;
37787;SDS011;23627;53.302;-6.362;2023-09-19T15:23:37;5.75;;;1.77;;
37787;SDS011;23627;53.302;-6.362;2023-09-19T15:26:04;7.38;;;2.03;;
37787;SDS011;23627;53.302;-6.362;2023-09-19T15:28:32;5.80;;;2.25;;
37787;SDS011;23627;53.302;-6.362;2023-09-19T15:31:03;7.35;;;2.08;;
37787;SDS011;23627;53.302;-6.362;2023-09-19T15:33:31;6.93;;;2.30;;
37787;SDS011;23627;53.302;-6.362;2023-09-19T15:36:01;9.23;;;2.42;;
37787;SDS011;23627;53.302;-6.362;2023-09-19T15:38:31;7.55;;;2.20;;
37787;SDS011;23627;53.302;-6.362;2023-09-19T15:41:18;5.80;;;1.70;;
37787;SDS011;23627;53.302;-6.362;2023-09-19T15:43:46;7.88;;;2.00;;
37787;SDS011;23627;53.302;-6.362;2023-09-19T15:46:12;5.60;;;1.83;;
37787;SDS011;23627;53.302;-6.362;2023-09-19T15:48:41;6.65;;;2.25;;
37787;SDS011;23627;53.302;-6.362;2023-09-19T15:51:07;6.82;;;1.58;;
37787;SDS011;23627;53.302;-6.362;2023-09-19T15:53:50;6.63;;;1.98;;